sensor_id;sensor_type;location;lat;lon;timestamp;P1;durP1;ratioP1;P2;durP2;ratioP2
52888;SDS011;41413;52.770;6.892;2022-12-10T08:02:15;81.20;;;52.15;;
52888;SDS011;41413;52.770;6.892;2022-12-10T08:04:41;78.88;;;51.95;;
52888;SDS011;41413;52.770;6.892;2022-12-10T08:07:08;76.32;;;51.55;;
52888;SDS011;41413;52.770;6.892;2022-12-10T08:09:35;83.00;;;48.47;;
52888;SDS011;41413;52.770;6.892;2022-12-10T08:12:01;82.47;;;52.35;;
52888;SDS011;41413;52.770;6.892;2022-12-10T08:14:28;74.35;;;47.30;;
52888;SDS011;41413;52.770;6.892;2022-12-10T08:16:55;86.40;;;53.25;;
52888;SDS011;41413;52.770;6.892;2022-12-10T08:19:22;81.13;;;54.88;;
52888;SDS011;41413;52.770;6.892;2022-12-10T08:21:56;74.00;;;50.25;;
52888;SDS011;41413;52.770;6.892;2022-12-10T08:24:23;71.32;;;49.10;;
52888;SDS011;41413;52.770;6.892;2022-12-10T08:26:49;81.10;;;50.65;;
52888;SDS011;41413;52.770;6.892;2022-12-10T08:29:16;78.97;;;48.15;;
52888;SDS011;41413;52.770;6.892;2022-12-10T08:31:43;84.88;;;50.67;;
52888;SDS011;41413;52.770;6.892;2022-12-10T08:34:14;76.75;;;50.70;;
52888;SDS011;41413;52.770;6.892;2022-12-10T08:36:42;71.10;;;47.78;;
52888;SDS011;41413;52.770;6.892;2022-12-10T08:39:09;69.90;;;48.00;;
52888;SDS011;41413;52.770;6.892;2022-12-10T08:41:41;74.93;;;50.33;;
52888;SDS011;41413;52.770;6.892;2022-12-10T08:44:09;74.47;;;50.38;;
52888;SDS011;41413;52.770;6.892;2022-12-10T08:46:37;66.80;;;47.53;;
52888;SDS011;41413;52.770;6.892;2022-12-10T08:49:04;69.50;;;47.17;;
52888;SDS011;41413;52.770;6.892;2022-12-10T08:51:33;73.78;;;48.65;;
52888;SDS011;41413;52.770;6.892;2022-12-10T08:54:00;77.95;;;48.83;;
52888;SDS011;41413;52.770;6.892;2022-12-10T08:56:27;70.38;;;47.67;;
52888;SDS011;41413;52.770;6.892;2022-12-10T08:58:53;70.80;;;48.17;;
52888;SDS011;41413;52.770;6.892;2022-12-10T09:01:20;68.88;;;45.22;;
52888;SDS011;41413;52.770;6.892;2022-12-10T09:03:48;64.75;;;45.92;;
52888;SDS011;41413;52.770;6.892;2022-12-10T09:06:17;64.72;;;46.22;;
52888;SDS011;41413;52.770;6.892;2022-12-10T09:08:45;68.25;;;48.20;;
52888;SDS011;41413;52.770;6.892;2022-12-10T09:11:17;68.53;;;48.67;;
52888;SDS011;41413;52.770;6.892;2022-12-10T09:13:44;62.97;;;44.00;;
52888;SDS011;41413;52.770;6.892;2022-12-10T09:16:11;66.53;;;44.00;;
52888;SDS011;41413;52.770;6.892;2022-12-10T09:18:38;66.13;;;44.47;;
52888;SDS011;41413;52.770;6.892;2022-12-10T09:21:06;65.70;;;44.05;;
52888;SDS011;41413;52.770;6.892;2022-12-10T09:23:34;61.40;;;43.22;;
52888;SDS011;41413;52.770;6.892;2022-12-10T09:26:01;56.03;;;42.47;;
52888;SDS011;41413;52.770;6.892;2022-12-10T09:28:32;65.32;;;43.78;;
52888;SDS011;41413;52.770;6.892;2022-12-10T09:30:59;64.68;;;46.50;;
52888;SDS011;41413;52.770;6.892;2022-12-10T09:33:27;66.22;;;44.90;;
52888;SDS011;41413;52.770;6.892;2022-12-10T09:35:54;63.75;;;44.53;;
52888;SDS011;41413;52.770;6.892;2022-12-10T09:38:21;61.83;;;44.58;;
52888;SDS011;41413;52.770;6.892;2022-12-10T09:46:53;65.28;;;44.33;;
52888;SDS011;41413;52.770;6.892;2022-12-10T09:52:22;64.20;;;44.22;;
52888;SDS011;41413;52.770;6.892;2022-12-10T10:29:48;62.75;;;46.17;;
52888;SDS011;41413;52.770;6.892;2022-12-10T10:32:44;62.60;;;43.53;;
52888;SDS011;41413;52.770;6.892;2022-12-10T10:35:27;63.15;;;43.60;;
52888;SDS011;41413;52.770;6.892;2022-12-10T10:37:59;61.50;;;44.25;;
52888;SDS011;41413;52.770;6.892;2022-12-10T10:40:39;52.90;;;40.17;;
52888;SDS011;41413;52.770;6.892;2022-12-10T10:43:13;61.83;;;44.00;;
52888;SDS011;41413;52.770;6.892;2022-12-10T10:45:58;60.20;;;41.72;;
52888;SDS011;41413;52.770;6.892;2022-12-10T10:48:31;63.50;;;42.63;;
52888;SDS011;41413;52.770;6.892;2022-12-10T10:51:05;58.83;;;41.55;;
52888;SDS011;41413;52.770;6.892;2022-12-10T10:53:39;60.85;;;45.67;;
52888;SDS011;41413;52.770;6.892;2022-12-10T10:58:49;57.35;;;41.53;;
52888;SDS011;41413;52.770;6.892;2022-12-10T11:03:47;62.58;;;42.80;;
52888;SDS011;41413;52.770;6.892;2022-12-10T11:06:23;65.57;;;44.00;;
52888;SDS011;41413;52.770;6.892;2022-12-10T11:08:50;64.45;;;46.42;;
52888;SDS011;41413;52.770;6.892;2022-12-10T11:14:15;63.58;;;44.33;;
52888;SDS011;41413;52.770;6.892;2022-12-10T11:16:50;65.35;;;42.38;;
52888;SDS011;41413;52.770;6.892;2022-12-10T11:19:25;65.85;;;46.67;;
52888;SDS011;41413;52.770;6.892;2022-12-10T11:21:52;65.93;;;47.45;;
52888;SDS011;41413;52.770;6.892;2022-12-10T11:24:19;68.35;;;50.90;;
52888;SDS011;41413;52.770;6.892;2022-12-10T11:46:05;72.28;;;47.78;;
52888;SDS011;41413;52.770;6.892;2022-12-10T11:48:33;66.15;;;47.03;;
52888;SDS011;41413;52.770;6.892;2022-12-10T11:51:52;70.45;;;46.22;;
52888;SDS011;41413;52.770;6.892;2022-12-10T11:54:19;66.05;;;44.92;;
52888;SDS011;41413;52.770;6.892;2022-12-10T11:57:06;63.85;;;44.35;;
52888;SDS011;41413;52.770;6.892;2022-12-10T11:59:49;67.88;;;46.38;;
52888;SDS011;41413;52.770;6.892;2022-12-10T12:05:59;64.35;;;45.00;;
52888;SDS011;41413;52.770;6.892;2022-12-10T12:14:27;64.50;;;43.03;;
52888;SDS011;41413;52.770;6.892;2022-12-10T12:17:10;70.30;;;46.45;;
52888;SDS011;41413;52.770;6.892;2022-12-10T12:20:02;67.45;;;44.28;;
52888;SDS011;41413;52.770;6.892;2022-12-10T12:22:51;68.97;;;46.38;;
52888;SDS011;41413;52.770;6.892;2022-12-10T12:25:34;69.55;;;46.88;;
52888;SDS011;41413;52.770;6.892;2022-12-10T12:30:58;66.57;;;46.15;;
52888;SDS011;41413;52.770;6.892;2022-12-10T12:33:33;69.43;;;46.53;;
52888;SDS011;41413;52.770;6.892;2022-12-10T12:36:13;64.80;;;43.50;;
52888;SDS011;41413;52.770;6.892;2022-12-10T12:38:48;65.47;;;42.13;;
52888;SDS011;41413;52.770;6.892;2022-12-10T12:41:43;67.95;;;46.05;;
52888;SDS011;41413;52.770;6.892;2022-12-10T12:47:03;65.20;;;43.67;;
52888;SDS011;41413;52.770;6.892;2022-12-10T12:49:40;62.95;;;45.75;;
52888;SDS011;41413;52.770;6.892;2022-12-10T12:54:53;69.93;;;45.67;;
52888;SDS011;41413;52.770;6.892;2022-12-10T13:00:16;69.80;;;45.30;;
52888;SDS011;41413;52.770;6.892;2022-12-10T13:05:21;64.53;;;44.88;;
52888;SDS011;41413;52.770;6.892;2022-12-10T13:13:39;68.85;;;45.75;;
52888;SDS011;41413;52.770;6.892;2022-12-10T13:19:16;66.78;;;51.70;;
52888;SDS011;41413;52.770;6.892;2022-12-10T13:40:14;62.92;;;43.88;;
52888;SDS011;41413;52.770;6.892;2022-12-10T13:49:00;60.30;;;41.03;;
52888;SDS011;41413;52.770;6.892;2022-12-10T13:51:44;71.18;;;44.00;;
52888;SDS011;41413;52.770;6.892;2022-12-10T13:54:23;55.88;;;38.85;;
52888;SDS011;41413;52.770;6.892;2022-12-10T13:57:22;60.08;;;40.83;;
52888;SDS011;41413;52.770;6.892;2022-12-10T14:05:42;58.03;;;39.40;;
52888;SDS011;41413;52.770;6.892;2022-12-10T14:08:32;63.42;;;41.17;;
52888;SDS011;41413;52.770;6.892;2022-12-10T14:11:01;58.38;;;39.75;;
52888;SDS011;41413;52.770;6.892;2022-12-10T14:13:41;63.20;;;42.45;;
52888;SDS011;41413;52.770;6.892;2022-12-10T14:16:13;59.25;;;40.30;;
52888;SDS011;41413;52.770;6.892;2022-12-10T14:18:42;61.03;;;40.38;;
52888;SDS011;41413;52.770;6.892;2022-12-10T14:21:12;60.42;;;41.75;;
52888;SDS011;41413;52.770;6.892;2022-12-10T14:23:45;58.03;;;40.85;;
52888;SDS011;41413;52.770;6.892;2022-12-10T14:26:20;60.53;;;38.08;;
52888;SDS011;41413;52.770;6.892;2022-12-10T14:28:57;61.78;;;38.60;;
52888;SDS011;41413;52.770;6.892;2022-12-10T14:31:28;69.82;;;52.38;;
52888;SDS011;41413;52.770;6.892;2022-12-10T14:33:58;59.63;;;38.05;;
52888;SDS011;41413;52.770;6.892;2022-12-10T14:36:29;56.55;;;40.25;;
52888;SDS011;41413;52.770;6.892;2022-12-10T14:39:01;62.97;;;42.70;;
52888;SDS011;41413;52.770;6.892;2022-12-10T14:41:28;76.45;;;40.80;;
52888;SDS011;41413;52.770;6.892;2022-12-10T14:44:05;63.20;;;38.53;;
52888;SDS011;41413;52.770;6.892;2022-12-10T14:46:32;59.05;;;41.40;;
52888;SDS011;41413;52.770;6.892;2022-12-10T14:48:59;69.90;;;42.67;;
52888;SDS011;41413;52.770;6.892;2022-12-10T14:51:30;62.15;;;41.80;;
52888;SDS011;41413;52.770;6.892;2022-12-10T14:53:59;68.28;;;43.42;;
52888;SDS011;41413;52.770;6.892;2022-12-10T14:56:27;63.03;;;40.33;;
52888;SDS011;41413;52.770;6.892;2022-12-10T14:59:03;67.65;;;40.60;;
52888;SDS011;41413;52.770;6.892;2022-12-10T15:01:43;67.93;;;39.63;;
52888;SDS011;41413;52.770;6.892;2022-12-10T15:04:14;67.32;;;41.88;;
52888;SDS011;41413;52.770;6.892;2022-12-10T15:06:51;58.08;;;40.00;;
52888;SDS011;41413;52.770;6.892;2022-12-10T15:09:19;57.95;;;38.85;;
52888;SDS011;41413;52.770;6.892;2022-12-10T15:11:58;64.20;;;42.20;;
52888;SDS011;41413;52.770;6.892;2022-12-10T15:14:26;61.17;;;44.67;;
52888;SDS011;41413;52.770;6.892;2022-12-10T15:16:54;63.92;;;43.60;;
52888;SDS011;41413;52.770;6.892;2022-12-10T15:24:47;54.67;;;39.13;;
52888;SDS011;41413;52.770;6.892;2022-12-10T15:27:22;57.35;;;38.70;;
52888;SDS011;41413;52.770;6.892;2022-12-10T15:29:50;60.78;;;40.53;;
52888;SDS011;41413;52.770;6.892;2022-12-10T15:35:00;59.92;;;41.03;;
52888;SDS011;41413;52.770;6.892;2022-12-10T15:37:34;66.15;;;41.70;;
52888;SDS011;41413;52.770;6.892;2022-12-10T15:40:06;68.68;;;41.22;;
52888;SDS011;41413;52.770;6.892;2022-12-10T15:42:48;62.22;;;39.00;;
52888;SDS011;41413;52.770;6.892;2022-12-10T15:45:19;66.07;;;42.78;;
52888;SDS011;41413;52.770;6.892;2022-12-10T15:47:55;66.53;;;40.70;;
52888;SDS011;41413;52.770;6.892;2022-12-10T15:50:24;62.40;;;41.83;;
52888;SDS011;41413;52.770;6.892;2022-12-10T15:52:52;72.68;;;46.00;;
52888;SDS011;41413;52.770;6.892;2022-12-10T15:55:19;71.50;;;45.92;;
52888;SDS011;41413;52.770;6.892;2022-12-10T15:57:46;71.47;;;44.83;;
52888;SDS011;41413;52.770;6.892;2022-12-10T16:00:16;65.55;;;41.10;;
52888;SDS011;41413;52.770;6.892;2022-12-10T16:02:56;63.17;;;40.50;;
52888;SDS011;41413;52.770;6.892;2022-12-10T16:05:26;68.68;;;45.15;;
52888;SDS011;41413;52.770;6.892;2022-12-10T16:07:55;69.53;;;43.35;;
52888;SDS011;41413;52.770;6.892;2022-12-10T16:10:27;66.35;;;41.90;;
52888;SDS011;41413;52.770;6.892;2022-12-10T16:13:09;71.35;;;43.78;;
52888;SDS011;41413;52.770;6.892;2022-12-10T16:15:45;63.85;;;43.05;;
52888;SDS011;41413;52.770;6.892;2022-12-10T16:18:17;71.95;;;44.97;;
52888;SDS011;41413;52.770;6.892;2022-12-10T16:20:44;65.68;;;40.10;;
52888;SDS011;41413;52.770;6.892;2022-12-10T16:23:11;66.07;;;40.53;;
52888;SDS011;41413;52.770;6.892;2022-12-10T16:25:40;77.80;;;45.22;;
52888;SDS011;41413;52.770;6.892;2022-12-10T16:28:10;63.05;;;43.00;;
52888;SDS011;41413;52.770;6.892;2022-12-10T16:30:41;69.55;;;40.50;;
52888;SDS011;41413;52.770;6.892;2022-12-10T16:33:15;76.93;;;41.40;;
52888;SDS011;41413;52.770;6.892;2022-12-10T16:35:44;88.82;;;47.60;;
52888;SDS011;41413;52.770;6.892;2022-12-10T16:38:12;76.90;;;45.03;;
52888;SDS011;41413;52.770;6.892;2022-12-10T16:40:39;70.90;;;41.40;;
52888;SDS011;41413;52.770;6.892;2022-12-10T16:43:14;74.22;;;43.35;;
52888;SDS011;41413;52.770;6.892;2022-12-10T16:45:42;86.73;;;47.00;;
52888;SDS011;41413;52.770;6.892;2022-12-10T16:48:09;76.85;;;43.08;;
52888;SDS011;41413;52.770;6.892;2022-12-10T16:50:36;75.38;;;47.55;;
52888;SDS011;41413;52.770;6.892;2022-12-10T16:53:11;82.43;;;44.25;;
52888;SDS011;41413;52.770;6.892;2022-12-10T16:55:44;68.78;;;37.63;;
52888;SDS011;41413;52.770;6.892;2022-12-10T16:58:12;71.40;;;42.92;;
52888;SDS011;41413;52.770;6.892;2022-12-10T17:00:43;76.57;;;43.03;;
52888;SDS011;41413;52.770;6.892;2022-12-10T17:03:14;65.90;;;40.40;;
52888;SDS011;41413;52.770;6.892;2022-12-10T17:05:50;73.80;;;42.25;;
52888;SDS011;41413;52.770;6.892;2022-12-10T17:08:25;69.07;;;41.33;;
52888;SDS011;41413;52.770;6.892;2022-12-10T17:10:54;73.55;;;42.20;;
52888;SDS011;41413;52.770;6.892;2022-12-10T17:13:41;78.57;;;43.33;;
52888;SDS011;41413;52.770;6.892;2022-12-10T17:16:13;73.68;;;42.50;;
52888;SDS011;41413;52.770;6.892;2022-12-10T17:18:44;82.27;;;43.93;;
52888;SDS011;41413;52.770;6.892;2022-12-10T17:21:11;76.47;;;42.65;;
52888;SDS011;41413;52.770;6.892;2022-12-10T17:23:38;85.30;;;43.83;;
52888;SDS011;41413;52.770;6.892;2022-12-10T17:26:05;72.30;;;41.55;;
52888;SDS011;41413;52.770;6.892;2022-12-10T17:28:32;72.70;;;42.60;;
52888;SDS011;41413;52.770;6.892;2022-12-10T17:30:59;77.13;;;43.55;;
52888;SDS011;41413;52.770;6.892;2022-12-10T17:33:26;80.82;;;44.83;;
52888;SDS011;41413;52.770;6.892;2022-12-10T17:35:53;76.63;;;41.38;;
52888;SDS011;41413;52.770;6.892;2022-12-10T17:38:24;69.53;;;39.25;;
52888;SDS011;41413;52.770;6.892;2022-12-10T17:40:51;85.43;;;44.05;;
52888;SDS011;41413;52.770;6.892;2022-12-10T17:43:19;73.63;;;40.45;;
52888;SDS011;41413;52.770;6.892;2022-12-10T17:45:46;66.70;;;38.45;;
52888;SDS011;41413;52.770;6.892;2022-12-10T17:48:14;60.85;;;37.40;;
52888;SDS011;41413;52.770;6.892;2022-12-10T17:50:42;68.30;;;40.20;;
52888;SDS011;41413;52.770;6.892;2022-12-10T17:53:11;76.45;;;43.78;;
52888;SDS011;41413;52.770;6.892;2022-12-10T17:55:42;82.82;;;43.63;;
52888;SDS011;41413;52.770;6.892;2022-12-10T17:58:19;67.85;;;39.40;;
52888;SDS011;41413;52.770;6.892;2022-12-10T18:00:49;77.15;;;39.85;;
52888;SDS011;41413;52.770;6.892;2022-12-10T18:03:17;72.22;;;40.00;;
52888;SDS011;41413;52.770;6.892;2022-12-10T18:05:44;61.53;;;35.92;;
52888;SDS011;41413;52.770;6.892;2022-12-10T18:08:12;65.80;;;38.22;;
52888;SDS011;41413;52.770;6.892;2022-12-10T18:10:40;71.20;;;37.72;;
52888;SDS011;41413;52.770;6.892;2022-12-10T18:13:07;75.03;;;40.28;;
52888;SDS011;41413;52.770;6.892;2022-12-10T18:15:33;78.03;;;40.63;;
52888;SDS011;41413;52.770;6.892;2022-12-10T18:18:01;76.18;;;40.63;;
52888;SDS011;41413;52.770;6.892;2022-12-10T18:20:30;78.88;;;42.70;;
52888;SDS011;41413;52.770;6.892;2022-12-10T18:22:59;71.20;;;39.78;;
52888;SDS011;41413;52.770;6.892;2022-12-10T18:25:27;83.28;;;40.30;;
52888;SDS011;41413;52.770;6.892;2022-12-10T18:27:55;72.28;;;38.78;;
52888;SDS011;41413;52.770;6.892;2022-12-10T18:30:27;88.30;;;43.05;;
52888;SDS011;41413;52.770;6.892;2022-12-10T18:32:54;73.65;;;40.85;;
52888;SDS011;41413;52.770;6.892;2022-12-10T18:35:21;87.13;;;43.13;;
52888;SDS011;41413;52.770;6.892;2022-12-10T18:37:47;75.47;;;40.58;;
52888;SDS011;41413;52.770;6.892;2022-12-10T18:40:16;83.10;;;42.90;;
52888;SDS011;41413;52.770;6.892;2022-12-10T18:42:44;65.78;;;38.20;;
52888;SDS011;41413;52.770;6.892;2022-12-10T18:45:13;76.30;;;41.70;;
52888;SDS011;41413;52.770;6.892;2022-12-10T18:47:40;77.75;;;40.63;;
52888;SDS011;41413;52.770;6.892;2022-12-10T18:50:21;61.15;;;37.08;;
52888;SDS011;41413;52.770;6.892;2022-12-10T18:52:49;68.72;;;41.15;;
52888;SDS011;41413;52.770;6.892;2022-12-10T18:55:17;70.18;;;35.50;;
52888;SDS011;41413;52.770;6.892;2022-12-10T18:57:46;68.80;;;35.92;;
52888;SDS011;41413;52.770;6.892;2022-12-10T19:00:24;56.08;;;32.97;;
52888;SDS011;41413;52.770;6.892;2022-12-10T19:02:52;64.93;;;34.97;;
52888;SDS011;41413;52.770;6.892;2022-12-10T19:05:19;67.93;;;34.28;;
52888;SDS011;41413;52.770;6.892;2022-12-10T19:07:45;77.65;;;37.55;;
52888;SDS011;41413;52.770;6.892;2022-12-10T19:10:14;71.60;;;39.60;;
52888;SDS011;41413;52.770;6.892;2022-12-10T19:12:42;65.88;;;35.60;;
52888;SDS011;41413;52.770;6.892;2022-12-10T19:15:10;76.57;;;39.28;;
52888;SDS011;41413;52.770;6.892;2022-12-10T19:17:39;77.40;;;40.30;;
52888;SDS011;41413;52.770;6.892;2022-12-10T19:20:11;75.60;;;37.92;;
52888;SDS011;41413;52.770;6.892;2022-12-10T19:22:40;70.50;;;37.50;;
52888;SDS011;41413;52.770;6.892;2022-12-10T19:25:07;73.28;;;37.67;;
52888;SDS011;41413;52.770;6.892;2022-12-10T19:27:35;70.20;;;36.78;;
52888;SDS011;41413;52.770;6.892;2022-12-10T19:30:02;91.03;;;39.00;;
52888;SDS011;41413;52.770;6.892;2022-12-10T19:32:30;76.82;;;38.42;;
52888;SDS011;41413;52.770;6.892;2022-12-10T19:34:57;78.18;;;38.53;;
52888;SDS011;41413;52.770;6.892;2022-12-10T19:37:24;81.03;;;37.85;;
52888;SDS011;41413;52.770;6.892;2022-12-10T19:39:52;84.40;;;39.90;;
52888;SDS011;41413;52.770;6.892;2022-12-10T19:42:19;87.50;;;42.25;;
52888;SDS011;41413;52.770;6.892;2022-12-10T19:44:46;74.57;;;39.90;;
52888;SDS011;41413;52.770;6.892;2022-12-10T19:47:15;73.60;;;39.17;;
52888;SDS011;41413;52.770;6.892;2022-12-10T19:49:42;73.43;;;36.85;;
52888;SDS011;41413;52.770;6.892;2022-12-10T19:52:09;73.38;;;34.88;;
52888;SDS011;41413;52.770;6.892;2022-12-10T19:54:36;68.70;;;33.78;;
52888;SDS011;41413;52.770;6.892;2022-12-10T19:57:02;55.58;;;30.33;;
52888;SDS011;41413;52.770;6.892;2022-12-10T19:59:29;54.10;;;29.75;;
52888;SDS011;41413;52.770;6.892;2022-12-10T20:01:56;55.90;;;31.52;;
52888;SDS011;41413;52.770;6.892;2022-12-10T20:04:23;53.40;;;29.45;;
52888;SDS011;41413;52.770;6.892;2022-12-10T20:06:49;61.83;;;32.08;;
52888;SDS011;41413;52.770;6.892;2022-12-10T20:09:23;58.55;;;31.70;;
52888;SDS011;41413;52.770;6.892;2022-12-10T20:11:54;59.42;;;32.33;;
52888;SDS011;41413;52.770;6.892;2022-12-10T20:14:21;66.35;;;33.80;;
52888;SDS011;41413;52.770;6.892;2022-12-10T20:16:49;71.90;;;33.75;;
52888;SDS011;41413;52.770;6.892;2022-12-10T20:19:17;70.07;;;34.35;;
52888;SDS011;41413;52.770;6.892;2022-12-10T20:21:45;62.22;;;32.08;;
52888;SDS011;41413;52.770;6.892;2022-12-10T20:24:13;65.63;;;33.92;;
52888;SDS011;41413;52.770;6.892;2022-12-10T20:26:41;56.17;;;32.03;;
52888;SDS011;41413;52.770;6.892;2022-12-10T20:29:11;55.92;;;29.05;;
52888;SDS011;41413;52.770;6.892;2022-12-10T20:31:44;52.58;;;30.25;;
52888;SDS011;41413;52.770;6.892;2022-12-10T20:34:11;76.55;;;31.00;;
52888;SDS011;41413;52.770;6.892;2022-12-10T20:36:39;60.78;;;32.47;;
52888;SDS011;41413;52.770;6.892;2022-12-10T20:39:08;65.03;;;30.70;;
52888;SDS011;41413;52.770;6.892;2022-12-10T20:41:44;48.60;;;30.08;;
52888;SDS011;41413;52.770;6.892;2022-12-10T20:44:12;55.30;;;30.02;;
52888;SDS011;41413;52.770;6.892;2022-12-10T20:46:39;53.42;;;30.02;;
52888;SDS011;41413;52.770;6.892;2022-12-10T20:49:08;59.15;;;33.25;;
52888;SDS011;41413;52.770;6.892;2022-12-10T20:51:36;53.85;;;30.35;;
52888;SDS011;41413;52.770;6.892;2022-12-10T20:54:03;58.47;;;33.47;;
52888;SDS011;41413;52.770;6.892;2022-12-10T20:56:30;66.18;;;35.00;;
52888;SDS011;41413;52.770;6.892;2022-12-10T20:58:56;72.85;;;38.05;;
52888;SDS011;41413;52.770;6.892;2022-12-10T21:01:23;63.08;;;33.17;;
52888;SDS011;41413;52.770;6.892;2022-12-10T21:03:50;67.75;;;36.22;;
52888;SDS011;41413;52.770;6.892;2022-12-10T21:06:21;69.13;;;33.05;;
52888;SDS011;41413;52.770;6.892;2022-12-10T21:08:52;60.83;;;33.97;;
52888;SDS011;41413;52.770;6.892;2022-12-10T21:11:19;61.65;;;32.83;;
52888;SDS011;41413;52.770;6.892;2022-12-10T21:13:45;76.93;;;37.90;;
52888;SDS011;41413;52.770;6.892;2022-12-10T21:16:14;61.50;;;35.30;;
52888;SDS011;41413;52.770;6.892;2022-12-10T21:18:42;72.70;;;35.38;;
52888;SDS011;41413;52.770;6.892;2022-12-10T21:21:10;76.63;;;37.95;;
52888;SDS011;41413;52.770;6.892;2022-12-10T21:23:38;62.65;;;33.78;;
52888;SDS011;41413;52.770;6.892;2022-12-10T21:26:05;64.63;;;33.15;;
52888;SDS011;41413;52.770;6.892;2022-12-10T21:28:33;60.00;;;33.53;;
52888;SDS011;41413;52.770;6.892;2022-12-10T21:31:00;57.75;;;31.75;;
52888;SDS011;41413;52.770;6.892;2022-12-10T21:33:27;70.20;;;34.50;;
52888;SDS011;41413;52.770;6.892;2022-12-10T21:35:54;62.90;;;34.67;;
52888;SDS011;41413;52.770;6.892;2022-12-10T21:38:21;59.13;;;31.83;;
52888;SDS011;41413;52.770;6.892;2022-12-10T21:40:49;68.22;;;33.00;;
52888;SDS011;41413;52.770;6.892;2022-12-10T21:43:17;63.55;;;34.38;;
52888;SDS011;41413;52.770;6.892;2022-12-10T21:45:49;52.72;;;31.20;;
52888;SDS011;41413;52.770;6.892;2022-12-10T21:48:19;60.35;;;32.05;;
52888;SDS011;41413;52.770;6.892;2022-12-10T21:50:47;52.05;;;28.83;;
52888;SDS011;41413;52.770;6.892;2022-12-10T21:53:20;47.92;;;27.45;;
52888;SDS011;41413;52.770;6.892;2022-12-10T21:55:47;39.72;;;25.15;;
52888;SDS011;41413;52.770;6.892;2022-12-10T21:58:14;54.90;;;27.90;;
52888;SDS011;41413;52.770;6.892;2022-12-10T22:00:41;49.28;;;27.58;;
52888;SDS011;41413;52.770;6.892;2022-12-10T22:03:07;52.08;;;28.13;;
52888;SDS011;41413;52.770;6.892;2022-12-10T22:05:39;44.13;;;28.98;;
52888;SDS011;41413;52.770;6.892;2022-12-10T22:08:07;53.80;;;30.77;;
52888;SDS011;41413;52.770;6.892;2022-12-10T22:10:34;63.00;;;33.15;;
52888;SDS011;41413;52.770;6.892;2022-12-10T22:13:01;53.78;;;32.80;;
52888;SDS011;41413;52.770;6.892;2022-12-10T22:15:27;50.88;;;28.58;;
52888;SDS011;41413;52.770;6.892;2022-12-10T22:17:54;49.58;;;28.33;;
52888;SDS011;41413;52.770;6.892;2022-12-10T22:20:21;40.92;;;25.33;;
52888;SDS011;41413;52.770;6.892;2022-12-10T22:22:47;44.45;;;26.02;;
52888;SDS011;41413;52.770;6.892;2022-12-10T22:25:14;47.17;;;27.38;;
52888;SDS011;41413;52.770;6.892;2022-12-10T22:27:41;50.78;;;25.95;;
52888;SDS011;41413;52.770;6.892;2022-12-10T22:30:08;45.72;;;27.42;;
52888;SDS011;41413;52.770;6.892;2022-12-10T22:32:36;45.63;;;26.27;;
52888;SDS011;41413;52.770;6.892;2022-12-10T22:35:04;45.08;;;25.42;;
52888;SDS011;41413;52.770;6.892;2022-12-10T22:37:31;49.50;;;30.55;;
52888;SDS011;41413;52.770;6.892;2022-12-10T22:39:58;48.33;;;28.33;;
52888;SDS011;41413;52.770;6.892;2022-12-10T22:42:31;46.50;;;27.38;;
52888;SDS011;41413;52.770;6.892;2022-12-10T22:44:59;47.50;;;28.52;;
52888;SDS011;41413;52.770;6.892;2022-12-10T22:47:28;41.95;;;24.48;;
52888;SDS011;41413;52.770;6.892;2022-12-10T22:49:55;47.88;;;27.70;;
52888;SDS011;41413;52.770;6.892;2022-12-10T22:52:23;42.45;;;25.70;;
52888;SDS011;41413;52.770;6.892;2022-12-10T22:54:50;45.13;;;26.45;;
52888;SDS011;41413;52.770;6.892;2022-12-10T22:57:17;41.53;;;26.75;;
52888;SDS011;41413;52.770;6.892;2022-12-10T22:59:44;38.03;;;26.10;;
52888;SDS011;41413;52.770;6.892;2022-12-10T23:02:11;50.75;;;27.52;;
52888;SDS011;41413;52.770;6.892;2022-12-10T23:04:38;44.50;;;26.60;;
52888;SDS011;41413;52.770;6.892;2022-12-10T23:07:05;47.22;;;28.75;;
52888;SDS011;41413;52.770;6.892;2022-12-10T23:09:32;43.95;;;28.23;;
52888;SDS011;41413;52.770;6.892;2022-12-10T23:11:58;44.88;;;25.50;;
52888;SDS011;41413;52.770;6.892;2022-12-10T23:14:44;46.60;;;26.40;;
52888;SDS011;41413;52.770;6.892;2022-12-10T23:17:11;48.42;;;24.52;;
52888;SDS011;41413;52.770;6.892;2022-12-10T23:19:38;46.63;;;27.63;;
52888;SDS011;41413;52.770;6.892;2022-12-10T23:22:04;39.92;;;24.88;;
52888;SDS011;41413;52.770;6.892;2022-12-10T23:24:31;39.90;;;23.50;;
52888;SDS011;41413;52.770;6.892;2022-12-10T23:26:58;46.00;;;24.10;;
52888;SDS011;41413;52.770;6.892;2022-12-10T23:29:25;34.38;;;23.65;;
52888;SDS011;41413;52.770;6.892;2022-12-10T23:31:51;32.83;;;22.92;;
52888;SDS011;41413;52.770;6.892;2022-12-10T23:34:18;42.28;;;24.40;;
52888;SDS011;41413;52.770;6.892;2022-12-10T23:36:45;40.35;;;22.67;;
52888;SDS011;41413;52.770;6.892;2022-12-10T23:39:12;45.00;;;23.90;;
52888;SDS011;41413;52.770;6.892;2022-12-10T23:41:38;40.38;;;23.77;;
52888;SDS011;41413;52.770;6.892;2022-12-10T23:44:05;41.13;;;23.75;;
52888;SDS011;41413;52.770;6.892;2022-12-10T23:46:32;35.05;;;22.42;;
52888;SDS011;41413;52.770;6.892;2022-12-10T23:48:58;34.42;;;24.73;;
52888;SDS011;41413;52.770;6.892;2022-12-10T23:51:25;35.75;;;23.00;;
52888;SDS011;41413;52.770;6.892;2022-12-10T23:53:52;32.20;;;22.33;;
52888;SDS011;41413;52.770;6.892;2022-12-10T23:56:19;37.40;;;20.67;;
52888;SDS011;41413;52.770;6.892;2022-12-10T23:58:46;32.22;;;21.52;;
